Little York, Ohio
Current Conditions -  °F | °C
As of 4:14 AM on Thursday 27 Nov 2014 (Local Time) from KMNN Reporting Station
Haze Haze  
Wind Chill: 22°   Ceiling: 1700
Heat Index: 30°   Visibility: 4mi
Dew Point: 26°   Wind: 9mph
Humidity: 85%   Direction: 330°NNW
Pressure: 30.06"   Gusts: NA
Location:  40.8054°N, 83.1316°W
Report Text: KMNN 270914Z AUTO 33008KT 4SM BR FEW009 OVC017 M01/M03 A3006 RMK AO2 T10111033 TSNO
Loading
Personal Weather Stations






























Interactive Weather Map New forecast layout! Learn more

10-Day Weather Forecast

Advertisements
Track Severe Weather on mobile